createdAt,value
2024-01-09T00:00:09.281Z,101556.08
2024-01-09T00:02:36.988Z,101557.05
2024-01-09T00:05:04.691Z,101557.72
2024-01-09T00:07:32.457Z,101552.81
2024-01-09T00:10:00.179Z,101557.89
2024-01-09T00:12:27.994Z,101557.29
2024-01-09T00:14:55.676Z,101556.56
2024-01-09T00:17:23.443Z,101553.43
2024-01-09T00:19:51.337Z,101556.33
2024-01-09T00:22:19.049Z,101555.23
2024-01-09T00:24:46.714Z,101557.23
2024-01-09T00:27:14.269Z,101556.04
2024-01-09T00:29:42.061Z,101557.89
2024-01-09T00:32:10.064Z,101557.37
2024-01-09T00:34:37.848Z,101555.80
2024-01-09T00:37:05.623Z,101558.77
2024-01-09T00:39:33.191Z,101563.36
2024-01-09T00:42:00.902Z,101566.98
2024-01-09T00:44:28.665Z,101564.48
2024-01-09T00:46:56.487Z,101561.00
2024-01-09T00:49:24.137Z,101564.34
2024-01-09T00:51:51.911Z,101567.33
2024-01-09T00:54:19.574Z,101569.77
2024-01-09T00:56:47.281Z,101570.69
2024-01-09T00:59:15.125Z,101566.80
2024-01-09T01:01:43.162Z,101567.95
2024-01-09T01:04:10.763Z,101568.22
2024-01-09T01:06:38.474Z,101568.38
2024-01-09T01:09:06.033Z,101568.02
2024-01-09T01:11:33.745Z,101567.52
2024-01-09T01:14:01.353Z,101570.40
2024-01-09T01:16:29.034Z,101575.94
2024-01-09T01:18:56.680Z,101580.19
2024-01-09T01:21:24.242Z,101582.70
2024-01-09T01:23:52.321Z,101583.23
2024-01-09T01:26:20.201Z,101585.41
2024-01-09T01:28:47.747Z,101588.47
2024-01-09T01:31:15.288Z,101594.54
2024-01-09T01:33:42.932Z,101597.35
2024-01-09T01:36:10.720Z,101593.84
2024-01-09T01:38:38.288Z,101596.87
2024-01-09T01:41:05.972Z,101599.31
2024-01-09T01:43:33.695Z,101601.02
2024-01-09T01:46:01.261Z,101597.88
2024-01-09T01:48:29.050Z,101596.83
2024-01-09T01:50:56.741Z,101598.63
2024-01-09T01:53:24.375Z,101602.16
2024-01-09T01:55:52.103Z,101605.32
2024-01-09T01:58:19.683Z,101608.62
2024-01-09T02:00:47.250Z,101602.67
2024-01-09T02:03:14.910Z,101603.52
2024-01-09T02:05:42.658Z,101608.27
2024-01-09T02:08:10.455Z,101609.05
2024-01-09T02:10:38.106Z,101613.67
2024-01-09T02:13:05.747Z,101606.52
2024-01-09T02:15:33.198Z,101598.84
2024-01-09T02:18:00.941Z,101600.16
2024-01-09T02:20:28.711Z,101598.17
2024-01-09T02:22:56.390Z,101593.03
2024-01-09T02:25:23.951Z,101598.65
2024-01-09T02:27:51.564Z,101597.36
2024-01-09T02:30:19.689Z,101602.99
2024-01-09T02:32:47.456Z,101606.38
2024-01-09T02:35:15.240Z,101608.83
2024-01-09T02:37:42.854Z,101605.73
2024-01-09T02:40:10.529Z,101602.77
2024-01-09T02:42:38.087Z,101605.07
2024-01-09T02:45:05.735Z,101607.93
2024-01-09T02:47:33.411Z,101617.51
2024-01-09T02:50:01.475Z,101616.15
2024-01-09T02:52:29.138Z,101625.31
2024-01-09T02:54:56.796Z,101626.18
2024-01-09T02:57:24.380Z,101621.52
2024-01-09T02:59:52.185Z,101626.64
2024-01-09T03:02:19.979Z,101623.16
2024-01-09T03:04:47.642Z,101625.99
2024-01-09T03:07:15.598Z,101625.55
2024-01-09T03:09:43.684Z,101629.27
2024-01-09T03:12:11.259Z,101630.13
2024-01-09T03:14:38.904Z,101624.63
2024-01-09T03:17:06.576Z,101626.44
2024-01-09T03:19:34.151Z,101619.52
2024-01-09T03:22:01.800Z,101617.70
2024-01-09T03:24:29.457Z,101616.34
2024-01-09T03:26:57.017Z,101613.12
2024-01-09T03:29:24.697Z,101608.67
2024-01-09T03:31:52.740Z,101606.19
2024-01-09T03:34:20.530Z,101606.36
2024-01-09T03:36:48.170Z,101602.95
2024-01-09T03:39:15.726Z,101601.58
2024-01-09T03:41:43.423Z,101604.15
2024-01-09T03:44:11.288Z,101605.66
2024-01-09T03:46:39.013Z,101602.76
2024-01-09T03:49:06.739Z,101607.68
2024-01-09T03:51:34.742Z,101606.34
2024-01-09T03:54:02.301Z,101609.63
2024-01-09T03:56:29.961Z,101611.13
2024-01-09T03:58:57.731Z,101608.35
2024-01-09T04:01:25.405Z,101610.09
2024-01-09T04:03:52.967Z,101611.74
2024-01-09T04:06:20.796Z,101608.73
2024-01-09T04:08:48.536Z,101606.01
2024-01-09T04:11:16.813Z,101607.20
2024-01-09T04:13:44.513Z,101609.56
2024-01-09T04:16:12.075Z,101613.92
2024-01-09T04:18:39.714Z,101620.61
2024-01-09T04:21:07.556Z,101620.02
2024-01-09T04:23:35.322Z,101619.25
2024-01-09T04:26:02.918Z,101620.06
2024-01-09T04:28:30.602Z,101624.14
2024-01-09T04:30:58.278Z,101629.80
2024-01-09T04:33:26.566Z,101626.67
2024-01-09T04:35:54.439Z,101629.10
2024-01-09T04:38:22.167Z,101627.33
2024-01-09T04:40:49.802Z,101633.09
2024-01-09T04:43:17.373Z,101629.73
2024-01-09T04:45:45.062Z,101634.02
2024-01-09T04:48:12.777Z,101633.34
2024-01-09T04:50:40.646Z,101634.54
2024-01-09T04:53:08.622Z,101633.90
2024-01-09T04:55:35.973Z,101634.63
2024-01-09T04:58:03.548Z,101637.55
2024-01-09T05:00:31.158Z,101636.52
2024-01-09T05:02:58.900Z,101637.20
2024-01-09T05:05:26.790Z,101638.09
2024-01-09T05:07:54.587Z,101639.77
2024-01-09T05:10:22.179Z,101642.53
2024-01-09T05:12:49.812Z,101644.75
2024-01-09T05:15:17.469Z,101643.73
2024-01-09T05:17:45.121Z,101645.13
2024-01-09T05:20:12.951Z,101647.59
2024-01-09T05:22:40.657Z,101654.98
2024-01-09T05:25:08.321Z,101659.13
2024-01-09T05:27:35.876Z,101659.17
2024-01-09T05:30:03.601Z,101659.70
2024-01-09T05:32:31.235Z,101663.86
2024-01-09T05:34:58.962Z,101664.78
2024-01-09T05:37:26.827Z,101669.00
2024-01-09T05:39:54.492Z,101668.94
2024-01-09T05:42:22.075Z,101667.96
2024-01-09T05:44:49.824Z,101670.25
2024-01-09T05:47:17.894Z,101669.76
2024-01-09T05:49:45.670Z,101670.97
2024-01-09T05:52:13.205Z,101671.02
2024-01-09T05:54:40.866Z,101673.25
2024-01-09T05:57:08.751Z,101672.58
2024-01-09T05:59:38.316Z,101670.83
2024-01-09T06:02:06.100Z,101671.01
2024-01-09T06:04:33.670Z,101677.02
2024-01-09T06:07:01.381Z,101678.83
2024-01-09T06:09:28.999Z,101681.23
2024-01-09T06:11:56.706Z,101685.76
2024-01-09T06:14:24.547Z,101691.59
2024-01-09T06:16:52.178Z,101694.48
2024-01-09T06:19:20.150Z,101696.56
2024-01-09T06:21:47.910Z,101706.36
2024-01-09T06:24:15.474Z,101709.25
2024-01-09T06:26:43.226Z,101708.90
2024-01-09T06:29:11.041Z,101709.77
2024-01-09T06:31:38.873Z,101713.15
2024-01-09T06:34:06.505Z,101714.23
2024-01-09T06:36:34.075Z,101714.72
2024-01-09T06:39:01.675Z,101716.27
2024-01-09T06:41:29.436Z,101714.81
2024-01-09T06:43:57.168Z,101716.38
2024-01-09T06:46:24.828Z,101719.13
2024-01-09T06:48:52.458Z,101718.48
2024-01-09T06:51:20.736Z,101715.36
2024-01-09T06:53:48.446Z,101725.05
2024-01-09T06:56:16.155Z,101722.13
2024-01-09T06:58:43.967Z,101723.77
2024-01-09T07:01:14.222Z,101721.48
2024-01-09T07:03:42.707Z,101732.23
2024-01-09T07:06:10.513Z,101733.65
2024-01-09T07:08:38.215Z,101735.32
2024-01-09T07:11:05.951Z,101737.56
2024-01-09T07:13:33.511Z,101735.45
2024-01-09T07:16:01.181Z,101734.06
2024-01-09T07:18:28.885Z,101733.54
2024-01-09T07:20:57.002Z,101734.68
2024-01-09T07:23:24.578Z,101736.83
2024-01-09T07:25:52.126Z,101738.23
2024-01-09T07:28:19.772Z,101741.98
2024-01-09T07:30:47.675Z,101740.92
2024-01-09T07:33:15.637Z,101743.38
2024-01-09T07:35:43.311Z,101737.77
2024-01-09T07:38:11.106Z,101739.45
2024-01-09T07:40:38.802Z,101745.15
2024-01-09T07:43:06.769Z,101744.52
2024-01-09T07:45:34.126Z,101743.54
2024-01-09T07:48:01.969Z,101751.16
2024-01-09T07:50:29.728Z,101752.52
2024-01-09T07:52:57.538Z,101759.30
2024-01-09T07:55:25.072Z,101755.38
2024-01-09T07:57:52.739Z,101750.92
2024-01-09T08:00:20.293Z,101751.50
2024-01-09T08:02:48.012Z,101752.77
2024-01-09T08:05:15.653Z,101749.10
2024-01-09T08:07:43.291Z,101753.73
2024-01-09T08:10:10.938Z,101756.94
2024-01-09T08:12:38.502Z,101765.00
2024-01-09T08:15:06.084Z,101762.00
2024-01-09T08:17:33.812Z,101756.63
2024-01-09T08:20:01.667Z,101758.17
2024-01-09T08:22:29.389Z,101756.92
2024-01-09T08:24:57.215Z,101759.88
2024-01-09T08:27:25.196Z,101765.44
2024-01-09T08:29:52.926Z,101760.53
2024-01-09T08:32:20.649Z,101756.94
2024-01-09T08:34:48.494Z,101758.45
2024-01-09T08:37:16.123Z,101759.17
2024-01-09T08:39:43.787Z,101759.67
2024-01-09T08:42:11.363Z,101757.61
2024-01-09T08:44:39.019Z,101763.14
2024-01-09T08:47:07.081Z,101762.44
2024-01-09T08:49:34.787Z,101760.71
2024-01-09T08:52:02.409Z,101759.58
2024-01-09T08:54:30.093Z,101758.09
2024-01-09T08:56:57.740Z,101763.36
2024-01-09T08:59:25.573Z,101759.46
2024-01-09T09:01:53.473Z,101756.58
2024-01-09T09:04:21.125Z,101759.77
2024-01-09T09:06:48.885Z,101760.95
2024-01-09T09:09:17.071Z,101760.52
2024-01-09T09:11:44.645Z,101757.95
2024-01-09T09:14:12.460Z,101758.73
2024-01-09T09:16:42.992Z,101760.36
2024-01-09T09:19:11.840Z,101760.67
2024-01-09T09:21:39.580Z,101763.71
2024-01-09T09:24:07.253Z,101762.80
2024-01-09T09:26:35.116Z,101758.02
2024-01-09T09:29:11.883Z,101756.70
2024-01-09T09:31:47.524Z,101754.79
2024-01-09T09:34:15.137Z,101757.90
2024-01-09T09:36:42.960Z,101749.92
2024-01-09T09:39:10.509Z,101748.89
2024-01-09T09:41:38.239Z,101744.75
2024-01-09T09:44:05.930Z,101745.91
2024-01-09T09:46:33.586Z,101739.86
2024-01-09T09:49:01.766Z,101736.34
2024-01-09T09:51:29.621Z,101730.26
2024-01-09T09:53:57.305Z,101735.04
2024-01-09T09:56:25.161Z,101735.25
2024-01-09T09:58:52.911Z,101733.39
2024-01-09T10:01:20.660Z,101731.29
2024-01-09T10:03:48.407Z,101728.45
2024-01-09T10:06:16.377Z,101726.75
2024-01-09T10:08:44.528Z,101723.23
2024-01-09T10:11:12.146Z,101723.16
2024-01-09T10:13:39.713Z,101717.17
2024-01-09T10:16:07.259Z,101718.64
2024-01-09T10:18:35.377Z,101715.70
2024-01-09T10:21:03.149Z,101714.62
2024-01-09T10:23:30.796Z,101709.73
2024-01-09T10:25:58.530Z,101704.79
2024-01-09T10:28:26.104Z,101703.41
2024-01-09T10:30:54.269Z,101698.58
2024-01-09T10:33:22.206Z,101692.90
2024-01-09T10:35:50.032Z,101688.30
2024-01-09T10:38:17.699Z,101686.77
2024-01-09T10:40:45.523Z,101686.75
2024-01-09T10:43:13.063Z,101685.95
2024-01-09T10:45:40.526Z,101684.09
2024-01-09T10:48:08.337Z,101683.56
2024-01-09T10:50:36.281Z,101682.16
2024-01-09T10:53:04.229Z,101681.89
2024-01-09T10:55:31.782Z,101676.09
2024-01-09T10:57:59.336Z,101670.21
2024-01-09T11:00:26.905Z,101668.39
2024-01-09T11:02:54.598Z,101663.64
2024-01-09T11:05:22.394Z,101661.39
2024-01-09T11:07:50.087Z,101654.98
2024-01-09T11:10:17.872Z,101647.52
2024-01-09T11:12:45.524Z,101643.07
2024-01-09T11:15:13.485Z,101646.56
2024-01-09T11:17:41.228Z,101651.42
2024-01-09T11:20:08.903Z,101647.85
2024-01-09T11:22:36.580Z,101643.40
2024-01-09T11:25:04.138Z,101642.70
2024-01-09T11:27:31.712Z,101639.59
2024-01-09T11:29:59.368Z,101638.23
2024-01-09T11:32:27.067Z,101631.55
2024-01-09T11:34:54.876Z,101621.61
2024-01-09T11:37:22.501Z,101618.70
2024-01-09T11:39:50.193Z,101616.54
2024-01-09T11:42:17.755Z,101613.81
2024-01-09T11:44:45.441Z,101609.27
2024-01-09T11:47:13.012Z,101606.63
2024-01-09T11:49:40.749Z,101601.49
2024-01-09T11:52:08.625Z,101597.30
2024-01-09T11:54:36.270Z,101598.98
2024-01-09T11:57:04.034Z,101595.70
2024-01-09T11:59:31.534Z,101596.92
2024-01-09T12:01:59.283Z,101592.20
2024-01-09T12:04:26.889Z,101591.26
2024-01-09T12:06:54.742Z,101583.59
2024-01-09T12:09:22.330Z,101584.56
2024-01-09T12:11:50.011Z,101585.29
2024-01-09T12:14:17.702Z,101583.16
2024-01-09T12:16:45.839Z,101580.57
2024-01-09T12:19:13.529Z,101581.54
2024-01-09T12:21:41.357Z,101576.19
2024-01-09T12:24:21.348Z,101576.63
2024-01-09T12:26:52.053Z,101574.73
2024-01-09T12:29:19.751Z,101572.36
2024-01-09T12:31:47.550Z,101566.02
2024-01-09T12:34:15.412Z,101570.23
2024-01-09T12:36:43.518Z,101570.17
2024-01-09T12:39:11.094Z,101571.42
2024-01-09T12:41:38.786Z,101562.56
2024-01-09T12:44:06.490Z,101558.77
2024-01-09T12:46:34.053Z,101563.08
2024-01-09T12:49:03.332Z,101565.88
2024-01-09T12:51:31.422Z,101568.19
2024-01-09T12:53:59.204Z,101569.66
2024-01-09T12:56:27.178Z,101564.29
2024-01-09T12:58:54.717Z,101562.79
2024-01-09T13:01:22.377Z,101563.03
2024-01-09T13:03:50.087Z,101561.30
2024-01-09T13:06:18.044Z,101562.05
2024-01-09T13:08:45.879Z,101557.67
2024-01-09T13:11:13.537Z,101551.13
2024-01-09T13:13:41.076Z,101549.56
2024-01-09T13:16:09.063Z,101553.33
2024-01-09T13:18:36.882Z,101551.17
2024-01-09T13:21:05.012Z,101550.52
2024-01-09T13:26:03.588Z,101555.21
2024-01-09T13:28:31.497Z,101555.38
2024-01-09T13:30:59.801Z,101561.90
2024-01-09T13:33:28.170Z,101559.05
2024-01-09T13:35:56.194Z,101559.77
2024-01-09T13:38:24.143Z,101561.68
2024-01-09T13:40:51.851Z,101564.48
2024-01-09T13:43:19.475Z,101569.59
2024-01-09T13:45:47.338Z,101564.92
2024-01-09T13:48:15.089Z,101565.20
2024-01-09T13:53:13.320Z,101567.31
2024-01-09T13:55:40.777Z,101571.27
2024-01-09T13:58:08.414Z,101574.98
2024-01-09T14:00:36.290Z,101571.86
2024-01-09T14:03:04.010Z,101573.49
2024-01-09T14:05:31.787Z,101572.91
2024-01-09T14:07:59.597Z,101572.45
2024-01-09T14:10:27.285Z,101573.97
2024-01-09T14:12:55.092Z,101573.55
2024-01-09T14:15:22.786Z,101571.70
2024-01-09T14:17:50.338Z,101572.77
2024-01-09T14:20:18.011Z,101571.55
2024-01-09T14:22:45.715Z,101572.66
2024-01-09T14:25:13.723Z,101568.60
2024-01-09T14:27:41.265Z,101570.64
2024-01-09T14:30:08.978Z,101571.44
2024-01-09T14:32:36.795Z,101573.02
2024-01-09T14:35:04.628Z,101569.70
2024-01-09T14:37:32.339Z,101572.55
2024-01-09T14:40:00.000Z,101568.33
2024-01-09T14:42:27.644Z,101569.16
2024-01-09T14:44:55.718Z,101573.70
2024-01-09T14:47:23.480Z,101568.80
2024-01-09T14:49:51.171Z,101579.67
2024-01-09T14:52:18.805Z,101584.64
2024-01-09T14:54:46.372Z,101588.89
2024-01-09T14:57:13.921Z,101587.77
2024-01-09T14:59:41.477Z,101589.17
2024-01-09T15:02:09.110Z,101586.86
2024-01-09T15:04:37.228Z,101589.44
2024-01-09T15:07:05.078Z,101594.58
2024-01-09T15:09:32.643Z,101592.20
2024-01-09T15:12:00.329Z,101593.80
2024-01-09T15:14:27.857Z,101598.26
2024-01-09T15:16:55.434Z,101602.75
2024-01-09T15:19:23.022Z,101599.75
2024-01-09T15:21:50.843Z,101597.17
2024-01-09T15:24:18.507Z,101594.41
2024-01-09T15:26:46.169Z,101590.83
2024-01-09T15:29:13.783Z,101601.50
2024-01-09T15:31:41.668Z,101600.29
2024-01-09T15:34:09.562Z,101600.93
2024-01-09T15:36:37.226Z,101599.16
2024-01-09T15:39:04.882Z,101597.52
2024-01-09T15:41:32.546Z,101596.80
2024-01-09T15:44:00.257Z,101598.83
2024-01-09T15:46:29.264Z,101605.14
2024-01-09T15:48:57.014Z,101604.79
2024-01-09T15:51:24.721Z,101600.70
2024-01-09T15:53:52.387Z,101602.55
2024-01-09T15:56:19.938Z,101601.11
2024-01-09T15:58:47.530Z,101597.30
2024-01-09T16:01:15.205Z,101597.39
2024-01-09T16:03:42.936Z,101599.48
2024-01-09T16:06:16.668Z,101596.33
2024-01-09T16:08:44.401Z,101596.57
2024-01-09T16:11:12.065Z,101596.05
2024-01-09T16:13:39.963Z,101589.26
2024-01-09T16:16:07.584Z,101596.11
2024-01-09T16:18:35.294Z,101595.88
2024-01-09T16:21:03.003Z,101596.04
2024-01-09T16:23:30.558Z,101591.22
2024-01-09T16:25:58.537Z,101594.17
2024-01-09T16:28:26.241Z,101599.23
2024-01-09T16:30:53.925Z,101603.27
2024-01-09T16:33:22.300Z,101609.75
2024-01-09T16:35:51.121Z,101606.03
2024-01-09T16:38:18.688Z,101601.17
2024-01-09T16:40:46.300Z,101601.25
2024-01-09T16:43:13.998Z,101606.96
2024-01-09T16:45:41.365Z,101610.91
2024-01-09T16:48:09.467Z,101611.52
2024-01-09T16:50:37.318Z,101611.11
2024-01-09T16:53:05.035Z,101612.23
2024-01-09T16:55:32.799Z,101616.70
2024-01-09T16:58:00.487Z,101616.98
2024-01-09T17:00:28.155Z,101614.41
2024-01-09T17:02:55.722Z,101615.02
2024-01-09T17:05:23.431Z,101616.16
2024-01-09T17:07:51.328Z,101621.09
2024-01-09T17:10:19.309Z,101618.77
2024-01-09T17:12:46.966Z,101619.08
2024-01-09T17:15:14.515Z,101618.89
2024-01-09T17:17:42.372Z,101628.18
2024-01-09T17:20:10.317Z,101632.91
2024-01-09T17:22:37.969Z,101628.33
2024-01-09T17:25:05.671Z,101624.27
2024-01-09T17:27:33.241Z,101624.68
2024-01-09T17:30:00.814Z,101618.80
2024-01-09T17:32:28.771Z,101621.50
2024-01-09T17:34:56.638Z,101620.21
2024-01-09T17:37:24.310Z,101617.27
2024-01-09T17:39:51.895Z,101620.13
2024-01-09T17:42:19.512Z,101622.22
2024-01-09T17:44:47.276Z,101620.20
2024-01-09T17:47:15.000Z,101622.02
2024-01-09T17:49:42.818Z,101614.64
2024-01-09T17:52:10.773Z,101613.17
2024-01-09T17:54:38.423Z,101610.05
2024-01-09T17:57:05.994Z,101607.00
2024-01-09T17:59:33.437Z,101608.02
2024-01-09T18:02:01.036Z,101606.61
2024-01-09T18:04:28.814Z,101603.91
2024-01-09T18:06:56.532Z,101605.61
2024-01-09T18:09:24.099Z,101605.05
2024-01-09T18:11:51.764Z,101602.67
2024-01-09T18:14:19.662Z,101604.51
2024-01-09T18:16:47.511Z,101601.55
2024-01-09T18:19:15.110Z,101604.99
2024-01-09T18:21:42.796Z,101603.26
2024-01-09T18:24:10.480Z,101602.53
2024-01-09T18:26:50.227Z,101599.09
2024-01-09T18:29:22.771Z,101602.30
2024-01-09T18:31:51.113Z,101600.45
2024-01-09T18:34:19.118Z,101604.70
2024-01-09T18:36:46.903Z,101601.49
2024-01-09T18:39:14.477Z,101604.64
2024-01-09T18:41:42.017Z,101605.33
2024-01-09T18:44:09.734Z,101606.55
2024-01-09T18:46:37.562Z,101606.45
2024-01-09T18:49:05.118Z,101604.98
2024-01-09T18:51:32.768Z,101603.19
2024-01-09T18:54:00.678Z,101600.64
2024-01-09T18:56:28.413Z,101604.98
2024-01-09T18:58:55.971Z,101605.60
2024-01-09T19:01:23.704Z,101604.48
2024-01-09T19:03:51.375Z,101602.48
2024-01-09T19:06:19.038Z,101602.20
2024-01-09T19:08:46.590Z,101608.95
2024-01-09T19:11:14.131Z,101611.04
2024-01-09T19:13:42.202Z,101609.39
2024-01-09T19:16:09.999Z,101610.89
2024-01-09T19:18:37.705Z,101609.20
2024-01-09T19:21:05.409Z,101607.73
2024-01-09T19:23:32.977Z,101605.77
2024-01-09T19:26:00.535Z,101601.11
2024-01-09T19:28:28.224Z,101600.70
2024-01-09T19:30:55.910Z,101606.87
2024-01-09T19:33:23.734Z,101608.91
2024-01-09T19:35:51.383Z,101601.77
2024-01-09T19:38:19.001Z,101604.07
2024-01-09T19:40:46.748Z,101606.01
2024-01-09T19:43:14.368Z,101609.34
2024-01-09T19:45:41.820Z,101611.05
2024-01-09T19:48:09.487Z,101606.84
2024-01-09T19:50:37.166Z,101605.32
2024-01-09T19:53:04.762Z,101603.58
2024-01-09T19:55:32.354Z,101603.36
2024-01-09T19:58:00.040Z,101597.63
2024-01-09T20:00:27.712Z,101598.23
2024-01-09T20:02:55.251Z,101596.58
2024-01-09T20:05:23.078Z,101599.42
2024-01-09T20:07:50.785Z,101601.15
2024-01-09T20:10:18.433Z,101594.02
2024-01-09T20:12:46.098Z,101595.95
2024-01-09T20:15:13.760Z,101598.53
2024-01-09T20:17:41.341Z,101599.90
2024-01-09T20:20:09.532Z,101599.31
2024-01-09T20:22:37.160Z,101599.88
2024-01-09T20:25:04.814Z,101600.02
2024-01-09T20:27:32.470Z,101600.70
2024-01-09T20:30:00.066Z,101597.52
2024-01-09T20:32:27.777Z,101601.35
2024-01-09T20:34:55.486Z,101605.35
2024-01-09T20:37:23.287Z,101606.46
2024-01-09T20:39:50.885Z,101601.80
2024-01-09T20:42:18.852Z,101604.37
2024-01-09T20:44:46.403Z,101606.45
2024-01-09T20:47:14.134Z,101610.73
2024-01-09T20:49:41.934Z,101608.80
2024-01-09T20:52:09.713Z,101610.71
2024-01-09T20:54:37.262Z,101605.99
2024-01-09T20:57:04.933Z,101606.75
2024-01-09T20:59:32.476Z,101607.27
2024-01-09T21:02:00.608Z,101607.48
2024-01-09T21:04:28.252Z,101602.67
2024-01-09T21:06:55.875Z,101599.77
2024-01-09T21:09:23.430Z,101593.25
2024-01-09T21:11:51.095Z,101598.80
2024-01-09T21:14:18.681Z,101601.58
2024-01-09T21:16:46.435Z,101598.16
2024-01-09T21:19:14.159Z,101594.41
2024-01-09T21:21:41.856Z,101590.95
2024-01-09T21:24:09.801Z,101590.59
2024-01-09T21:26:37.366Z,101591.98
2024-01-09T21:29:05.234Z,101594.22
2024-01-09T21:31:32.970Z,101593.15
2024-01-09T21:34:00.816Z,101588.86
2024-01-09T21:36:28.622Z,101586.99
2024-01-09T21:38:56.286Z,101589.64
2024-01-09T21:41:23.858Z,101590.73
2024-01-09T21:43:51.534Z,101592.10
2024-01-09T21:46:19.268Z,101591.52
2024-01-09T21:48:46.909Z,101590.56
2024-01-09T21:51:14.698Z,101595.61
2024-01-09T21:53:42.264Z,101593.63
2024-01-09T21:56:10.242Z,101593.75
2024-01-09T21:58:38.110Z,101591.59
2024-01-09T22:01:05.679Z,101592.88
2024-01-09T22:03:35.892Z,101591.44
2024-01-09T22:06:03.563Z,101593.20
2024-01-09T22:08:31.088Z,101592.46
2024-01-09T22:11:02.129Z,101594.74
2024-01-09T22:13:31.898Z,101594.12
2024-01-09T22:15:59.592Z,101592.34
2024-01-09T22:18:27.329Z,101586.98
2024-01-09T22:20:55.128Z,101586.63
2024-01-09T22:23:22.762Z,101583.63
2024-01-09T22:25:50.372Z,101583.79
2024-01-09T22:28:18.421Z,101578.82
2024-01-09T22:30:46.223Z,101580.42
2024-01-09T22:33:14.114Z,101578.20
2024-01-09T22:35:42.087Z,101578.87
2024-01-09T22:38:09.909Z,101578.73
2024-01-09T22:40:37.565Z,101574.38
2024-01-09T22:43:05.203Z,101573.02
2024-01-09T22:45:32.760Z,101567.88
2024-01-09T22:48:00.746Z,101568.70
2024-01-09T22:50:28.642Z,101566.42
2024-01-09T22:52:56.684Z,101563.44
2024-01-09T22:55:24.442Z,101562.64
2024-01-09T22:57:52.199Z,101562.95
2024-01-09T23:00:19.860Z,101560.89
2024-01-09T23:02:47.523Z,101557.70
2024-01-09T23:05:19.049Z,101556.99
2024-01-09T23:07:47.272Z,101552.38
2024-01-09T23:10:15.118Z,101549.92
2024-01-09T23:12:43.079Z,101547.38
2024-01-09T23:15:10.968Z,101545.69
2024-01-09T23:17:38.933Z,101543.40
2024-01-09T23:20:06.851Z,101543.63
2024-01-09T23:22:34.700Z,101542.21
2024-01-09T23:25:02.515Z,101536.11
2024-01-09T23:27:30.174Z,101535.45
2024-01-09T23:29:57.840Z,101539.69
2024-01-09T23:32:25.595Z,101534.06
2024-01-09T23:35:01.038Z,101528.08
2024-01-09T23:37:30.262Z,101523.73
2024-01-09T23:39:57.795Z,101519.17
2024-01-09T23:42:25.349Z,101518.10
2024-01-09T23:44:53.078Z,101511.64
2024-01-09T23:47:20.859Z,101508.01
2024-01-09T23:49:48.556Z,101507.09
2024-01-09T23:52:16.097Z,101502.33
2024-01-09T23:54:44.090Z,101497.88
2024-01-09T23:57:12.749Z,101501.40
2024-01-09T23:59:40.416Z,101496.59
